createdAt,value
2023-01-22T00:02:17.778Z,76.03
2023-01-22T00:04:48.299Z,76.24
2023-01-22T00:07:19.572Z,76.30
2023-01-22T00:09:50.272Z,76.68
2023-01-22T00:12:20.868Z,77.21
2023-01-22T00:14:51.250Z,76.94
2023-01-22T00:17:21.649Z,76.58
2023-01-22T00:19:52.018Z,77.32
2023-01-22T00:22:22.776Z,76.43
2023-01-22T00:24:53.124Z,76.34
2023-01-22T00:27:24.052Z,77.09
2023-01-22T00:29:55.359Z,77.27
2023-01-22T00:32:28.089Z,76.97
2023-01-22T00:34:59.363Z,76.88
2023-01-22T00:37:31.226Z,76.78
2023-01-22T00:40:03.195Z,76.95
2023-01-22T00:42:35.104Z,76.99
2023-01-22T00:45:08.405Z,76.75
2023-01-22T00:47:41.159Z,77.36
2023-01-22T00:50:15.427Z,77.44
2023-01-22T00:52:48.191Z,77.12
2023-01-22T00:55:19.429Z,77.15
2023-01-22T00:57:52.163Z,76.88
2023-01-22T01:00:24.432Z,76.95
2023-01-22T01:03:13.598Z,76.79
2023-01-22T01:05:46.492Z,76.82
2023-01-22T01:08:19.368Z,77.03
2023-01-22T01:10:51.323Z,76.83
2023-01-22T01:13:25.177Z,77.00
2023-01-22T01:16:04.745Z,77.17
2023-01-22T01:18:38.231Z,77.23
2023-01-22T01:21:10.704Z,77.23
2023-01-22T01:23:43.068Z,76.86
2023-01-22T01:33:35.433Z,77.22
2023-01-22T01:36:08.625Z,77.11
2023-01-22T01:38:40.374Z,77.13
2023-01-22T01:41:12.285Z,77.27
2023-01-22T01:43:42.700Z,77.22
2023-01-22T01:46:19.864Z,77.35
2023-01-22T01:48:51.778Z,77.31
2023-01-22T01:51:26.524Z,77.33
2023-01-22T01:53:56.924Z,77.58
2023-01-22T01:56:29.814Z,77.67
2023-01-22T01:59:00.407Z,77.68
2023-01-22T02:01:31.202Z,77.76
2023-01-22T02:04:05.603Z,77.54
2023-01-22T02:06:37.616Z,77.67
2023-01-22T02:09:09.299Z,77.63
2023-01-22T02:11:41.027Z,77.55
2023-01-22T02:14:12.950Z,77.43
2023-01-22T02:16:43.480Z,77.48
2023-01-22T02:19:14.254Z,77.52
2023-01-22T02:21:45.552Z,77.67
2023-01-22T02:24:18.149Z,77.62
2023-01-22T02:26:48.696Z,77.56
2023-01-22T02:29:21.897Z,77.84
2023-01-22T02:31:52.395Z,77.74
2023-01-22T02:34:25.873Z,77.85
2023-01-22T02:36:56.917Z,77.89
2023-01-22T02:39:27.341Z,77.83
2023-01-22T02:41:58.271Z,77.87
2023-01-22T02:44:28.900Z,77.88
2023-01-22T02:46:59.393Z,77.98
2023-01-22T02:49:30.588Z,78.04
2023-01-22T02:52:01.056Z,78.00
2023-01-22T02:54:32.410Z,77.94
2023-01-22T02:57:02.994Z,78.10
2023-01-22T02:59:33.415Z,78.03
2023-01-22T03:02:04.038Z,78.15
2023-01-22T03:04:34.897Z,78.15
2023-01-22T03:07:06.362Z,78.14
2023-01-22T03:09:36.991Z,78.28
2023-01-22T03:12:08.733Z,78.37
2023-01-22T03:14:58.390Z,78.42
2023-01-22T03:17:47.598Z,78.37
2023-01-22T03:20:37.601Z,78.27
2023-01-22T03:23:08.784Z,78.40
2023-01-22T03:25:40.303Z,78.46
2023-01-22T03:28:19.059Z,78.45
2023-01-22T03:30:56.768Z,78.40
2023-01-22T03:33:27.823Z,78.37
2023-01-22T03:36:03.000Z,78.46
2023-01-22T03:38:34.663Z,78.23
2023-01-22T03:41:07.545Z,78.28
2023-01-22T03:43:38.644Z,78.39
2023-01-22T03:46:13.340Z,78.45
2023-01-22T03:48:46.590Z,78.51
2023-01-22T03:51:19.114Z,78.39
2023-01-22T03:53:50.577Z,78.37
2023-01-22T03:56:23.714Z,78.21
2023-01-22T03:58:53.472Z,78.43
2023-01-22T04:01:26.075Z,78.52
2023-01-22T04:03:57.457Z,78.44
2023-01-22T04:06:30.746Z,78.38
2023-01-22T04:09:02.425Z,78.41
2023-01-22T04:11:43.987Z,78.57
2023-01-22T04:14:14.742Z,78.51
2023-01-22T04:16:52.012Z,78.50
2023-01-22T04:19:40.958Z,78.30
2023-01-22T04:22:30.096Z,78.47
2023-01-22T04:25:00.714Z,78.43
2023-01-22T04:27:31.079Z,78.58
2023-01-22T04:30:01.900Z,78.54
2023-01-22T04:32:32.821Z,78.54
2023-01-22T04:35:20.807Z,78.71
2023-01-22T04:37:57.875Z,78.88
2023-01-22T04:40:28.276Z,78.95
2023-01-22T04:43:02.864Z,78.97
2023-01-22T04:45:33.276Z,78.86
2023-01-22T04:48:04.030Z,79.02
2023-01-22T04:50:35.613Z,79.05
2023-01-22T04:53:06.168Z,79.16
2023-01-22T04:55:36.517Z,79.17
2023-01-22T04:58:10.828Z,79.17
2023-01-22T05:00:42.461Z,79.23
2023-01-22T05:03:13.770Z,79.19
2023-01-22T05:05:45.056Z,79.27
2023-01-22T05:08:15.530Z,79.30
2023-01-22T05:10:47.134Z,79.32
2023-01-22T05:13:23.443Z,79.26
2023-01-22T05:15:53.988Z,79.28
2023-01-22T05:18:24.459Z,79.18
2023-01-22T05:20:55.555Z,79.13
2023-01-22T05:23:27.796Z,79.20
2023-01-22T05:25:58.743Z,78.99
2023-01-22T05:28:54.972Z,79.02
2023-01-22T05:31:41.410Z,79.03
2023-01-22T05:34:24.061Z,79.22
2023-01-22T05:36:55.078Z,79.21
2023-01-22T05:39:26.752Z,79.29
2023-01-22T05:41:58.866Z,79.19
2023-01-22T05:44:29.599Z,79.09
2023-01-22T05:47:00.035Z,79.16
2023-01-22T05:50:02.407Z,79.13
2023-01-22T05:52:32.782Z,79.13
2023-01-22T05:55:03.140Z,79.25
2023-01-22T05:57:40.104Z,79.09
2023-01-22T06:00:13.620Z,79.15
2023-01-22T06:02:52.048Z,79.25
2023-01-22T06:05:22.401Z,79.32
2023-01-22T06:07:57.331Z,79.28
2023-01-22T06:10:28.048Z,79.16
2023-01-22T06:12:58.331Z,79.07
2023-01-22T06:15:29.104Z,79.12
2023-01-22T06:18:05.725Z,79.03
2023-01-22T06:20:36.613Z,79.10
2023-01-22T06:23:07.539Z,79.21
2023-01-22T06:25:37.831Z,79.23
2023-01-22T06:28:16.318Z,78.96
2023-01-22T06:30:47.270Z,79.02
2023-01-22T06:33:18.155Z,79.21
2023-01-22T06:35:48.394Z,79.31
2023-01-22T06:38:18.685Z,79.30
2023-01-22T06:40:54.233Z,79.47
2023-01-22T06:43:25.275Z,79.62
2023-01-22T06:45:56.365Z,79.60
2023-01-22T06:48:43.567Z,79.74
2023-01-22T06:51:14.171Z,79.91
2023-01-22T06:53:44.768Z,79.98
2023-01-22T06:56:15.295Z,80.08
2023-01-22T06:58:47.814Z,80.06
2023-01-22T07:01:18.821Z,80.08
2023-01-22T07:03:50.198Z,80.11
2023-01-22T07:06:21.584Z,80.15
2023-01-22T07:08:54.095Z,80.21
2023-01-22T07:11:26.993Z,80.27
2023-01-22T07:14:00.020Z,80.25
2023-01-22T07:16:33.125Z,80.08
2023-01-22T07:19:05.011Z,80.02
2023-01-22T07:21:37.637Z,79.90
2023-01-22T07:24:10.613Z,80.13
2023-01-22T07:26:44.147Z,80.17
2023-01-22T07:29:16.026Z,80.03
2023-01-22T07:31:50.098Z,80.01
2023-01-22T07:34:22.132Z,80.01
2023-01-22T07:36:55.311Z,80.00
2023-01-22T07:39:27.141Z,80.06
2023-01-22T07:42:01.591Z,80.05
2023-01-22T07:44:40.725Z,80.07
2023-01-22T07:47:13.614Z,79.94
2023-01-22T07:49:45.514Z,80.00
2023-01-22T07:52:21.421Z,80.15
2023-01-22T07:54:55.743Z,80.16
2023-01-22T07:57:29.035Z,80.11
2023-01-22T08:00:12.260Z,80.10
2023-01-22T08:09:20.130Z,80.07
2023-01-22T08:10:07.258Z,80.02
2023-01-22T08:12:42.547Z,80.00
2023-01-22T08:15:22.499Z,79.98
2023-01-22T08:18:34.808Z,79.89
2023-01-22T08:21:08.931Z,79.95
2023-01-22T08:23:43.602Z,80.07
2023-01-22T08:26:18.371Z,80.08
2023-01-22T08:32:46.235Z,79.69
2023-01-22T08:35:19.823Z,79.75
2023-01-22T08:37:48.818Z,79.94
2023-01-22T08:40:21.498Z,79.97
2023-01-22T08:42:56.109Z,79.99
2023-01-22T08:45:28.608Z,79.88
2023-01-22T08:48:04.157Z,79.94
2023-01-22T08:50:38.637Z,80.05
2023-01-22T08:53:11.127Z,79.96
2023-01-22T08:55:45.482Z,79.80
2023-01-22T08:58:21.994Z,79.84
2023-01-22T09:00:54.784Z,79.79
2023-01-22T09:03:27.142Z,79.94
2023-01-22T09:06:00.858Z,80.09
2023-01-22T09:08:32.152Z,80.06
2023-01-22T09:11:07.145Z,80.01
2023-01-22T09:13:39.220Z,79.85
2023-01-22T09:16:12.040Z,79.88
2023-01-22T09:18:43.362Z,79.99
2023-01-22T09:21:16.142Z,79.74
2023-01-22T09:30:58.123Z,79.47
2023-01-22T09:33:33.839Z,79.19
2023-01-22T09:36:17.115Z,79.28
2023-01-22T09:38:51.925Z,78.93
2023-01-22T09:41:32.987Z,78.66
2023-01-22T09:44:08.385Z,78.93
2023-01-22T09:46:47.565Z,78.43
2023-01-22T09:49:27.071Z,78.41
2023-01-22T09:52:05.388Z,78.38
2023-01-22T09:54:40.818Z,78.11
2023-01-22T09:57:30.678Z,78.11
2023-01-22T10:00:04.182Z,78.14
2023-01-22T10:02:46.282Z,77.83
2023-01-22T10:05:37.844Z,78.01
2023-01-22T10:08:17.812Z,77.71
2023-01-22T10:10:52.840Z,77.49
2023-01-22T10:13:30.293Z,77.49
2023-01-22T10:16:09.268Z,77.45
2023-01-22T10:18:49.836Z,77.63
2023-01-22T10:21:28.871Z,77.61
2023-01-22T10:24:07.611Z,77.21
2023-01-22T10:33:20.449Z,77.54
2023-01-22T10:36:00.815Z,77.39
2023-01-22T10:38:34.723Z,77.11
2023-01-22T10:41:19.388Z,77.16
2023-01-22T10:43:55.726Z,77.37
2023-01-22T10:46:32.765Z,77.50
2023-01-22T10:49:05.749Z,77.19
2023-01-22T10:51:36.158Z,77.59
2023-01-22T10:54:21.081Z,77.59
2023-01-22T10:56:53.220Z,77.33
2023-01-22T10:59:27.795Z,77.10
2023-01-22T11:02:03.167Z,77.04
2023-01-22T11:04:34.629Z,77.33
2023-01-22T11:07:08.703Z,77.27
2023-01-22T11:09:43.661Z,77.31
2023-01-22T11:12:21.162Z,77.40
2023-01-22T11:14:59.514Z,77.61
2023-01-22T11:17:35.870Z,77.69
2023-01-22T11:20:12.610Z,77.69
2023-01-22T11:22:46.597Z,77.66
2023-01-22T11:25:17.481Z,77.58
2023-01-22T11:28:05.512Z,77.45
2023-01-22T11:31:06.113Z,77.06
2023-01-22T11:33:54.150Z,77.22
2023-01-22T11:36:33.096Z,76.84
2023-01-22T11:39:09.318Z,77.05
2023-01-22T11:41:50.901Z,77.09
2023-01-22T11:44:49.516Z,77.28
2023-01-22T11:47:46.732Z,77.12
2023-01-22T11:50:27.045Z,76.19
2023-01-22T11:53:07.336Z,76.85
2023-01-22T11:55:54.936Z,76.98
2023-01-22T11:58:32.348Z,76.78
2023-01-22T12:01:20.722Z,76.93
2023-01-22T12:04:34.313Z,76.55
2023-01-22T12:07:21.518Z,76.60
2023-01-22T12:10:09.911Z,76.64
2023-01-22T12:12:46.823Z,76.41
2023-01-22T12:15:37.773Z,76.00
2023-01-22T12:18:36.293Z,76.30
2023-01-22T12:21:16.429Z,75.95
2023-01-22T12:23:54.608Z,75.95
2023-01-22T12:26:31.581Z,75.67
2023-01-22T12:29:09.566Z,75.62
2023-01-22T12:31:47.285Z,75.72
2023-01-22T12:34:32.507Z,75.73
2023-01-22T12:37:05.735Z,75.21
2023-01-22T12:39:53.340Z,74.70
2023-01-22T12:42:32.913Z,75.24
2023-01-22T12:45:15.483Z,75.36
2023-01-22T12:47:56.176Z,74.86
2023-01-22T12:50:29.355Z,74.68
2023-01-22T12:53:05.442Z,74.66
2023-01-22T12:55:42.006Z,74.80
2023-01-22T12:58:28.111Z,75.30
2023-01-22T13:01:21.517Z,75.23
2023-01-22T13:03:59.678Z,74.84
2023-01-22T13:06:36.713Z,74.88
2023-01-22T13:09:25.604Z,75.06
2023-01-22T13:11:57.236Z,75.16
2023-01-22T13:14:34.029Z,74.94
2023-01-22T13:17:20.965Z,74.97
2023-01-22T13:19:52.991Z,75.17
2023-01-22T13:22:27.103Z,74.86
2023-01-22T13:24:59.404Z,75.05
2023-01-22T13:27:34.185Z,74.69
2023-01-22T13:30:18.201Z,74.68
2023-01-22T13:32:50.234Z,74.84
2023-01-22T13:35:22.488Z,74.52
2023-01-22T13:37:55.267Z,74.19
2023-01-22T13:40:50.564Z,74.72
2023-01-22T13:43:24.318Z,74.62
2023-01-22T13:45:57.474Z,74.54
2023-01-22T13:48:29.642Z,74.55
2023-01-22T13:51:03.714Z,74.69
2023-01-22T13:53:40.941Z,74.86
2023-01-22T13:56:18.172Z,75.02
2023-01-22T13:58:50.624Z,74.92
2023-01-22T14:01:39.110Z,75.10
2023-01-22T14:04:30.837Z,74.95
2023-01-22T14:07:02.171Z,74.80
2023-01-22T14:09:40.731Z,74.99
2023-01-22T14:12:19.764Z,75.25
2023-01-22T14:14:56.273Z,75.39
2023-01-22T14:17:34.340Z,75.08
2023-01-22T14:20:35.825Z,75.23
2023-01-22T14:23:09.592Z,75.60
2023-01-22T14:25:53.025Z,75.49
2023-01-22T14:28:41.814Z,75.75
2023-01-22T14:31:27.439Z,75.86
2023-01-22T14:33:58.729Z,76.01
2023-01-22T14:36:31.260Z,75.93
2023-01-22T14:39:10.845Z,76.12
2023-01-22T14:41:55.004Z,76.13
2023-01-22T14:44:32.357Z,76.30
2023-01-22T14:47:10.785Z,76.48
2023-01-22T14:49:44.781Z,76.72
2023-01-22T14:52:26.575Z,76.83
2023-01-22T14:55:20.659Z,76.89
2023-01-22T15:02:33.033Z,77.04
2023-01-22T15:11:19.528Z,77.15
2023-01-22T15:13:53.119Z,77.54
2023-01-22T15:16:49.930Z,77.60
2023-01-22T15:27:36.906Z,77.99
2023-01-22T15:30:38.721Z,78.13
2023-01-22T15:33:21.041Z,78.08
2023-01-22T15:40:06.405Z,78.31
2023-01-22T15:43:10.629Z,78.43
2023-01-22T15:49:26.139Z,78.60
2023-01-22T15:52:05.454Z,78.75
2023-01-22T15:54:54.617Z,78.88
2023-01-22T15:57:46.398Z,79.02
2023-01-22T16:00:28.505Z,79.15
2023-01-22T16:03:16.481Z,79.33
2023-01-22T16:05:53.513Z,79.26
2023-01-22T16:08:28.903Z,79.33
2023-01-22T16:11:00.760Z,79.41
2023-01-22T16:13:32.315Z,79.40
2023-01-22T16:16:06.427Z,79.34
2023-01-22T16:18:38.245Z,79.51
2023-01-22T16:21:18.031Z,79.58
2023-01-22T16:23:54.294Z,79.63
2023-01-22T16:26:37.110Z,79.66
2023-01-22T16:32:46.299Z,79.75
2023-01-22T16:35:18.733Z,79.94
2023-01-22T16:38:09.274Z,80.03
2023-01-22T16:44:26.971Z,80.14
2023-01-22T16:49:50.339Z,80.33
2023-01-22T16:52:23.236Z,80.46
2023-01-22T16:54:53.527Z,80.43
2023-01-22T16:57:25.334Z,80.52
2023-01-22T16:59:56.777Z,80.57
2023-01-22T17:02:27.987Z,80.58
2023-01-22T17:04:59.480Z,80.63
2023-01-22T17:07:33.943Z,80.76
2023-01-22T17:10:06.528Z,80.83
2023-01-22T17:12:46.212Z,80.85
2023-01-22T17:15:18.928Z,80.99
2023-01-22T17:17:55.824Z,80.99
2023-01-22T17:20:27.421Z,81.03
2023-01-22T17:22:59.485Z,81.12
2023-01-22T17:25:34.407Z,81.30
2023-01-22T17:28:06.930Z,81.37
2023-01-22T17:30:39.962Z,81.32
2023-01-22T17:38:48.006Z,81.51
2023-01-22T17:41:21.608Z,81.73
2023-01-22T17:43:56.229Z,81.84
2023-01-22T17:46:56.361Z,81.63
2023-01-22T17:50:05.596Z,81.71
2023-01-22T17:52:41.040Z,81.73
2023-01-22T17:55:14.333Z,81.86
2023-01-22T17:57:46.709Z,81.86
2023-01-22T18:00:28.589Z,81.97
2023-01-22T18:03:02.253Z,81.97
2023-01-22T18:05:36.005Z,81.94
2023-01-22T18:08:08.272Z,81.85
2023-01-22T18:11:11.881Z,81.86
2023-01-22T18:14:23.580Z,81.98
2023-01-22T18:17:40.244Z,82.00
2023-01-22T18:23:03.256Z,82.01
2023-01-22T18:25:35.324Z,82.04
2023-01-22T18:28:07.090Z,82.02
2023-01-22T18:30:39.367Z,81.97
2023-01-22T18:33:19.704Z,81.87
2023-01-22T18:35:53.587Z,81.89
2023-01-22T18:38:29.866Z,81.95
2023-01-22T18:41:10.587Z,81.98
2023-01-22T18:43:43.519Z,82.05
2023-01-22T18:46:15.599Z,82.02
2023-01-22T18:48:47.149Z,82.03
2023-01-22T18:51:19.234Z,81.97
2023-01-22T18:53:50.169Z,81.97
2023-01-22T18:56:21.776Z,82.11
2023-01-22T18:58:53.501Z,82.05
2023-01-22T19:01:26.228Z,82.11
2023-01-22T19:03:58.296Z,81.97
2023-01-22T19:06:32.091Z,82.06
2023-01-22T19:09:05.926Z,81.98
2023-01-22T19:11:38.841Z,81.98
2023-01-22T19:14:10.088Z,81.91
2023-01-22T19:16:44.250Z,81.91
2023-01-22T19:19:16.330Z,81.90
2023-01-22T19:21:48.218Z,81.87
2023-01-22T19:24:22.416Z,81.86
2023-01-22T19:26:54.881Z,81.75
2023-01-22T19:29:26.489Z,81.62
2023-01-22T19:31:57.925Z,81.58
2023-01-22T19:34:30.401Z,81.51
2023-01-22T19:37:02.721Z,81.32
2023-01-22T19:39:33.577Z,80.95
2023-01-22T19:42:06.703Z,80.71
2023-01-22T19:44:39.806Z,80.57
2023-01-22T19:47:11.476Z,80.66
2023-01-22T19:49:42.659Z,80.56
2023-01-22T19:52:14.438Z,80.64
2023-01-22T19:54:48.258Z,80.63
2023-01-22T19:57:19.096Z,80.71
2023-01-22T19:59:53.317Z,80.77
2023-01-22T20:02:24.261Z,80.91
2023-01-22T20:04:55.423Z,80.80
2023-01-22T20:07:28.499Z,80.88
2023-01-22T20:09:59.334Z,80.86
2023-01-22T20:12:30.153Z,80.85
2023-01-22T20:15:02.412Z,80.88
2023-01-22T20:17:33.582Z,80.88
2023-01-22T20:20:10.389Z,80.83
2023-01-22T20:22:41.920Z,80.89
2023-01-22T20:25:13.969Z,81.01
2023-01-22T20:27:45.387Z,81.09
2023-01-22T20:30:17.252Z,81.04
2023-01-22T20:32:49.075Z,80.91
2023-01-22T20:35:20.449Z,80.95
2023-01-22T20:37:51.670Z,80.94
2023-01-22T20:40:23.260Z,80.96
2023-01-22T20:42:54.336Z,80.81
2023-01-22T20:45:25.216Z,80.89
2023-01-22T20:47:56.499Z,80.81
2023-01-22T20:50:28.136Z,80.66
2023-01-22T20:52:59.386Z,80.36
2023-01-22T20:55:30.430Z,80.32
2023-01-22T20:58:02.034Z,80.32
2023-01-22T21:00:33.400Z,80.13
2023-01-22T21:03:04.358Z,79.89
2023-01-22T21:05:35.822Z,79.76
2023-01-22T21:08:07.556Z,79.57
2023-01-22T21:10:40.149Z,79.32
2023-01-22T21:13:12.758Z,79.49
2023-01-22T21:15:45.113Z,79.60
2023-01-22T21:18:16.759Z,79.71
2023-01-22T21:20:48.420Z,79.68
2023-01-22T21:23:20.280Z,79.47
2023-01-22T21:25:52.352Z,79.46
2023-01-22T21:28:27.578Z,79.51
2023-01-22T21:31:03.238Z,79.63
2023-01-22T21:33:37.354Z,79.63
2023-01-22T21:36:12.786Z,79.46
2023-01-22T21:38:45.872Z,79.62
2023-01-22T21:41:20.600Z,79.90
2023-01-22T21:46:58.017Z,79.86
2023-01-22T21:49:36.427Z,79.91
2023-01-22T21:52:10.094Z,79.87
2023-01-22T21:54:43.112Z,79.53
2023-01-22T21:57:19.174Z,79.62
2023-01-22T22:00:01.156Z,79.72
2023-01-22T22:02:47.669Z,79.51
2023-01-22T22:05:20.962Z,79.39
2023-01-22T22:08:07.672Z,79.48
2023-01-22T22:10:52.845Z,79.53
2023-01-22T22:13:25.628Z,79.56
2023-01-22T22:16:01.788Z,78.94
2023-01-22T22:18:36.953Z,79.10
2023-01-22T22:21:15.258Z,79.19
2023-01-22T22:23:50.272Z,78.84
2023-01-22T22:26:29.232Z,78.85
2023-01-22T22:29:00.128Z,78.75
2023-01-22T22:31:45.582Z,78.95
2023-01-22T22:34:24.534Z,79.37
2023-01-22T22:37:05.917Z,79.56
2023-01-22T22:39:48.423Z,79.75
2023-01-22T22:42:22.500Z,79.91
2023-01-22T22:44:58.895Z,80.04
2023-01-22T22:47:39.756Z,80.23
2023-01-22T22:50:14.801Z,80.44
2023-01-22T22:53:04.994Z,80.66
2023-01-22T22:55:44.117Z,80.89
2023-01-22T22:58:21.409Z,80.97
2023-01-22T23:00:54.695Z,81.10
2023-01-22T23:03:27.703Z,81.26
2023-01-22T23:05:59.890Z,81.31
2023-01-22T23:08:45.633Z,81.47
2023-01-22T23:11:47.975Z,81.51
2023-01-22T23:14:21.923Z,81.75
2023-01-22T23:16:57.741Z,81.88
2023-01-22T23:19:32.086Z,82.03
2023-01-22T23:22:07.429Z,81.87
2023-01-22T23:24:40.271Z,81.91
2023-01-22T23:27:13.498Z,81.81
2023-01-22T23:29:47.815Z,81.80
2023-01-22T23:32:26.742Z,81.72
2023-01-22T23:35:03.923Z,81.48
2023-01-22T23:37:35.121Z,81.37
2023-01-22T23:40:08.852Z,81.21
2023-01-22T23:42:41.636Z,80.88
2023-01-22T23:45:16.071Z,80.87
2023-01-22T23:47:49.126Z,80.88
2023-01-22T23:50:21.298Z,80.56
2023-01-22T23:53:01.069Z,80.39
2023-01-22T23:55:34.814Z,80.31
2023-01-22T23:58:12.482Z,80.27
